ADDS METAR Data INFO
IDs: Format: Raw Decoded Include TAF

Data at: 1139 UTC 17 Jul 2018

KMWA 171115Z AUTO 00000KT 7SM CLR 23/23 A3002 RMK AO2 T02300227
KMWA 171055Z AUTO 00000KT 7SM CLR 23/23 A3001 RMK AO2 T02280225
KMWA 171035Z AUTO 00000KT 7SM CLR 23/23 A3001 RMK AO2 T02300226
KMWA 171015Z AUTO 00000KT 10SM CLR 23/23 A3001 RMK AO2 T02320229
KMWA 170955Z AUTO 00000KT 10SM CLR 23/23 A3000 RMK AO2 T02310229
KMWA 170935Z AUTO 00000KT 7SM CLR 23/23 A3000 RMK AO2 T02310228
KMWA 170915Z AUTO 00000KT 10SM CLR 24/24 A2999 RMK AO2 T02390235
KMWA 170855Z AUTO 00000KT 10SM CLR 24/24 A2999 RMK AO2 T02400237
KMWA 170835Z AUTO 00000KT 10SM CLR 24/24 A2999 RMK AO2 T02370235
KMWA 170815Z AUTO 00000KT 10SM CLR 24/24 A2999 RMK AO2 T02370235
KMWA 170755Z AUTO 00000KT 7SM CLR 24/23 A2999 RMK AO2 T02360233
KMWA 170735Z AUTO 00000KT 7SM CLR 24/24 A2999 RMK AO2 T02410238
KMWA 170715Z AUTO 00000KT 5SM BR CLR 24/24 A2999 RMK AO2 T02430240
KMWA 170655Z AUTO 00000KT 4SM BR CLR 25/25 A2998 RMK AO2 T02470245
KMWA 170635Z AUTO 00000KT 3SM BR CLR 25/25 A2998 RMK AO2 T02490245
KMWA 170615Z AUTO 00000KT 7SM CLR 25/25 A2998 RMK AO2 T02520249
KMWA 170555Z AUTO 00000KT 7SM CLR 26/25 A2998 RMK AO2 T02570254 10307 20250
KMWA 170535Z AUTO 00000KT 5SM BR CLR 25/25 A2998 RMK AO2 T02510249
KMWA 170515Z AUTO 00000KT 7SM CLR 25/25 A2998 RMK AO2 T02530250
KMWA 170455Z AUTO 00000KT 10SM CLR 26/26 A2999 RMK AO2 T02600257
KMWA 170435Z AUTO 00000KT 10SM CLR 26/26 A2998 RMK AO2 T02620260
KMWA 170415Z AUTO 00000KT 10SM CLR 26/26 A2998 RMK AO2 LTG DSNT SE T02610258
KMWA 170355Z AUTO 00000KT 10SM CLR 26/26 A2998 RMK AO2 LTG DSNT SE T02610258
KMWA 170335Z AUTO 00000KT 10SM CLR 26/26 A2998 RMK AO2 T02620259
KMWA 170315Z AUTO 00000KT 10SM CLR 26/26 A2998 RMK AO2 LTG DSNT SE T02610258
KMWA 170255Z AUTO 00000KT 10SM CLR 27/26 A2998 RMK AO2 LTG DSNT SE T02650262
KMWA 170235Z AUTO 00000KT 10SM SCT047 27/26 A2998 RMK AO2 T02650261
KMWA 170215Z AUTO 00000KT 10SM CLR 27/27 A2997 RMK AO2 LTG DSNT S T02710268
KMWA 170155Z AUTO 00000KT 10SM SCT055 28/27 A2997 RMK AO2 T02760272
KMWA 170135Z AUTO 00000KT 10SM BKN060 BKN065 28/28 A2996 RMK AO2 T02810277
KMWA 170115Z AUTO 00000KT 10SM SCT060 28/28 A2995 RMK AO2 T02820279
KMWA 170055Z AUTO 00000KT 10SM CLR 29/27 A2994 RMK AO2 T02930265
KMWA 170035Z AUTO 22003KT 10SM CLR 29/27 A2995 RMK AO2 T02910265
KMWA 170015Z AUTO 00000KT 10SM CLR 30/26 A2994 RMK AO2 LTG DSNT SW T03030260
KMWA 162345Z 11004KT 20SM SCT150 30/25 A2993 RMK LTG DSNT SW
KMWA 162245Z 05005KT 20SM SCT050 31/24 A2992 RMK LTG DSNT SE
KMWA 162145Z 03010KT 20SM CT055 30/24 A2993 RMK LTG DSNT NE AND E
KMWA 162045Z 22006KT 20SM SCT046 SCT050 33/23 A2993 RMK LTG DSNT NE
KMWA 161946Z 28007KT 15SM SCT042 33/24 A2995
KMWA 161845Z 26007KT 15SM SCT034 BKN047 32/24 A2997
KMWA 161745Z 32007KT 15SM SCT030 BKN047 32/25 A2999
KMWA 161645Z 22004KT 10SM SCT021 31/25 A2999
KMWA 161545Z 12004KT 10SM SCT150 30/26 A3000
KMWA 161445Z 18005KT 10SM SCT012 28/26 A3000
KMWA 161345Z 18005KT 10SM SKC 26/26 A3000
KMWA 161245Z 14005KT 10SM SKC 25/25 A3000
KMWA 161145Z 14005KT 10SM SKC 23/23 A2998
KMWA 161135Z AUTO 00000KT 3SM BR CLR A2998 RMK AO2
KMWA 161115Z AUTO 00000KT 2SM BR CLR A2997 RMK AO2
KMWA 161055Z AUTO 00000KT 1 3/4SM BR VV007 A2997 RMK AO2
KMWA 161035Z AUTO 00000KT 3SM BR CLR A2997 RMK AO2
KMWA 161015Z AUTO 00000KT 7SM CLR A2996 RMK AO2
KMWA 160955Z AUTO 00000KT 7SM CLR A2996 RMK AO2
KMWA 160935Z AUTO 00000KT 1 1/4SM BR VV007 A2996 RMK AO2
KMWA 160915Z AUTO 00000KT 4SM HZ CLR A2996 RMK AO2
KMWA 160855Z AUTO 00000KT 10SM CLR A2996 RMK AO2
KMWA 160835Z AUTO 00000KT 10SM CLR A2997 RMK AO2
KMWA 160815Z AUTO 00000KT 7SM CLR A2997 RMK AO2
KMWA 160755Z AUTO 00000KT 2SM BR SCT005 SCT080 A2997 RMK AO2
KMWA 160735Z AUTO 00000KT 1SM BR VV007 23/23 A2997 RMK AO2 VIS 3/4V2 T02340231
KMWA 160715Z AUTO 00000KT 2 1/2SM BR CLR 24/23 A2997 RMK AO2 VIS 1V5 T02360233
KMWA 160655Z AUTO 00000KT 5SM BR CLR 24/23 A2997 RMK AO2 T02360234
KMWA 160635Z AUTO 00000KT 5SM BR CLR 24/24 A2997 RMK AO2 T02380235
KMWA 160615Z AUTO 00000KT 10SM CLR 24/24 A2998 RMK AO2 T02400237
KMWA 160555Z AUTO 21003KT 10SM CLR 24/24 A2998 RMK AO2 60070 T02400237 10255 20240 403080230
KMWA 160535Z AUTO 00000KT 7SM SCT019 24/24 A2998 RMK AO2 T02400237
KMWA 160515Z AUTO 00000KT 10SM BKN019 24/24 A2999 RMK AO2 T02410238
KMWA 160455Z AUTO 00000KT 10SM OVC019 24/24 A2999 RMK AO2 T02420240
KMWA 160435Z AUTO 19003KT 10SM OVC017 24/24 A2998 RMK AO2 T02430240
KMWA 160415Z AUTO 20004KT 10SM OVC015 25/24 A2998 RMK AO2 T02450242
KMWA 160355Z AUTO 21004KT 10SM OVC015 25/24 A2998 RMK AO2 T02450242
KMWA 160335Z AUTO 20004KT 10SM OVC017 25/25 A2999 RMK AO2 T02470245
KMWA 160315Z AUTO 18004KT 10SM OVC019 25/25 A2998 RMK AO2 T02470245
KMWA 160255Z AUTO 18003KT 10SM BKN021 OVC026 25/25 A2998 RMK AO2 60070 T02470245
KMWA 160235Z AUTO 19006KT 10SM SCT006 SCT014 OVC025 25/24 A2997 RMK AO2 T02460243
KMWA 160215Z AUTO 18008KT 10SM -DZ BKN006 BKN013 OVC017 25/24 A2996 RMK AO2 T02460243
KMWA 160155Z AUTO 17007KT 5SM RA SCT006 BKN009 OVC031 25/24 A2996 RMK AO2 P0024 T02450242
KMWA 160135Z AUTO 16008KT 3SM +RA OVC006 25/24 A2996 RMK AO2 P0019 T02460243
KMWA 160115Z AUTO 19004KT 3SM +RA BKN006 OVC010 25/25 A2996 RMK AO2 P0004 T02500246
KMWA 160055Z AUTO 00000KT 7SM DZ OVC010 25/25 A2995 RMK AO2 LTG DSNT S P0046 T02530250
KMWA 160035Z AUTO 08005KT 7SM -TSRA OVC010 25/25 A2995 RMK AO2 LTG DSNT ALQS P0046 T02520250
KMWA 160015Z AUTO 01010KT 1 1/2SM TSRA BKN008 BKN014 OVC020 25/24 A2995 RMK AO2 VIS 1/2V5 LTG DSNT N AND NE P0041 T02460243
KMWA 152345Z 16010KT 10SM RA BKN016 OVC030 26/26 A2994